Map

Track Data

SID SEASON NUMBER BASIN SUBBASIN NAME ISO_TIME NATURE LAT LON WMO_WIND WMO_PRES WMO_AGENCY TRACK_TYPE DIST2LAND LANDFALL IFLAG USA_AGENCY USA_ATCF_ID USA_LAT USA_LON USA_RECORD USA_STATUS USA_WIND USA_PRES USA_SSHS USA_R34_NE USA_R34_SE USA_R34_SW USA_R34_NW USA_R50_NE USA_R50_SE USA_R50_SW USA_R50_NW USA_R64_NE USA_R64_SE USA_R64_SW USA_R64_NW USA_POCI USA_ROCI USA_RMW USA_EYE TOKYO_LAT TOKYO_LON TOKYO_GRADE TOKYO_WIND TOKYO_PRES TOKYO_R50_DIR TOKYO_R50_LONG TOKYO_R50_SHORT TOKYO_R30_DIR TOKYO_R30_LONG TOKYO_R30_SHORT TOKYO_LAND CMA_LAT CMA_LON CMA_CAT CMA_WIND CMA_PRES HKO_LAT HKO_LON HKO_CAT HKO_WIND HKO_PRES NEWDELHI_LAT NEWDELHI_LON NEWDELHI_GRADE NEWDELHI_WIND NEWDELHI_PRES NEWDELHI_CI NEWDELHI_DP NEWDELHI_POCI REUNION_LAT REUNION_LON REUNION_TYPE REUNION_WIND REUNION_PRES REUNION_TNUM REUNION_CI REUNION_RMW REUNION_R34_NE REUNION_R34_SE REUNION_R34_SW REUNION_R34_NW REUNION_R50_NE REUNION_R50_SE REUNION_R50_SW REUNION_R50_NW REUNION_R64_NE REUNION_R64_SE REUNION_R64_SW REUNION_R64_NW BOM_LAT BOM_LON BOM_TYPE BOM_WIND BOM_PRES BOM_TNUM BOM_CI BOM_RMW BOM_R34_NE BOM_R34_SE BOM_R34_SW BOM_R34_NW BOM_R50_NE BOM_R50_SE BOM_R50_SW BOM_R50_NW BOM_R64_NE BOM_R64_SE BOM_R64_SW BOM_R64_NW BOM_ROCI BOM_POCI BOM_EYE BOM_POS_METHOD BOM_PRES_METHOD NADI_LAT NADI_LON NADI_CAT NADI_WIND NADI_PRES WELLINGTON_LAT WELLINGTON_LON WELLINGTON_WIND WELLINGTON_PRES DS824_LAT DS824_LON DS824_STAGE DS824_WIND DS824_PRES TD9636_LAT TD9636_LON TD9636_STAGE TD9636_WIND TD9636_PRES TD9635_LAT TD9635_LON TD9635_WIND TD9635_PRES TD9635_ROCI NEUMANN_LAT NEUMANN_LON NEUMANN_CLASS NEUMANN_WIND NEUMANN_PRES MLC_LAT MLC_LON MLC_CLASS MLC_WIND MLC_PRES USA_GUST BOM_GUST BOM_GUST_PER REUNION_GUST REUNION_GUST_PER USA_SEAHGT USA_SEARAD_NE USA_SEARAD_SE USA_SEARAD_SW USA_SEARAD_NW STORM_SPEED STORM_DIR
1976167N14128 1976 63 WP MM NOT_NAMED 1976-06-15 06:00:00 TS 14.2000 128.200 main 368 368 __O___________ -1 14.2000 128.200 1 29 1004 5 352
1976167N14128 1976 63 WP MM NOT_NAMED 1976-06-15 09:00:00 TS 14.4475 128.170 main 382 382 __P___________ -1 14.4475 128.170 1 29 1004 5 349
1976167N14128 1976 63 WP MM NOT_NAMED 1976-06-15 12:00:00 TS 14.7000 128.100 main 396 396 __O___________ -1 14.7000 128.100 1 29 1004 6 339
1976167N14128 1976 63 WP MM NOT_NAMED 1976-06-15 15:00:00 TS 14.9575 127.965 main 406 390 __P___________ -1 14.9575 127.965 1 29 1004 6 330
1976167N14128 1976 63 WP MM NOT_NAMED 1976-06-15 18:00:00 TS 15.2000 127.800 main 393 388 __O___________ -1 15.2000 127.800 1 29 1004 5 327
1976167N14128 1976 63 WP MM NOT_NAMED 1976-06-15 21:00:00 TS 15.4075 127.657 main 392 378 __P___________ -1 15.4075 127.657 1 29 1004 5 324
1976167N14128 1976 63 WP MM NOT_NAMED 1976-06-16 00:00:00 TS 15.6000 127.500 main 383 371 __O___________ -1 15.6000 127.500 1 29 1004 5 317
1976167N14128 1976 63 WP MM NOT_NAMED 1976-06-16 03:00:00 TS 15.7850 127.285 main 377 366 __P___________ -1 15.7850 127.285 1 29 1003 6 316
1976167N14128 1976 63 WP MM NOT_NAMED 1976-06-16 06:00:00 TS 16.0000 127.100 main 373 372 __O___________ -1 16.0000 127.100 1 29 1003 5 332
1976167N14128 1976 63 WP MM NOT_NAMED 1976-06-16 09:00:00 TS 16.2550 127.020 main 387 387 __P___________ -1 16.2550 127.020 1 29 1002 6 351
1976167N14128 1976 63 WP MM NOT_NAMED 1976-06-16 12:00:00 TS 16.6000 127.000 main 410 410 __O___________ -1 16.6000 127.000 1 29 1002 8 0
1976167N14128 1976 63 WP MM NOT_NAMED 1976-06-16 15:00:00 TS 17.0700 127.030 main 451 451 __P___________ -1 17.0700 127.030 1 29 1002 10 1
1976167N14128 1976 63 WP MM NOT_NAMED 1976-06-16 18:00:00 TS 17.6000 127.000 main 482 469 __O___________ -1 17.6000 127.000 1 29 1002 11 348
1976167N14128 1976 63 WP MM NOT_NAMED 1976-06-16 21:00:00 TS 18.1225 126.803 main 472 443 __P___________ -1 18.1225 126.803 1 29 1001 11 335
1976167N14128 1976 63 WP MM NOT_NAMED 1976-06-17 00:00:00 TS 18.6000 126.500 main 443 414 __O___________ -1 18.6000 126.500 1 29 1000 11 325
1976167N14128 1976 63 WP MM NOT_NAMED 1976-06-17 03:00:00 TS 18.9800 126.165 main 416 381 __P___________ -1 18.9800 126.165 1 29 1000 10 317
1976167N14128 1976 63 WP MM NOT_NAMED 1976-06-17 06:00:00 TS 19.3000 125.800 main 381 352 __O___________ -1 19.3000 125.800 1 29 1000 9 311
1976167N14128 1976 63 WP MM NOT_NAMED 1976-06-17 09:00:00 TS 19.5926 125.412 main 352 333 __P___________ -1 19.5926 125.412 1 26 1001 9 312
1976167N14128 1976 63 WP MM NOT_NAMED 1976-06-17 12:00:00 TS 19.9000 125.100 main 338 335 __O___________ -1 19.9000 125.100 1 23 1002 8 328
1976167N14128 1976 63 WP MM NOT_NAMED 1976-06-17 15:00:00 TS 20.2774 124.950 main 345 345 __P___________ -1 20.2774 124.950 1 21 1002 8 347
1976167N14128 1976 63 WP MM NOT_NAMED 1976-06-17 18:00:00 TS 20.7000 124.900 main 374 __O___________ -1 20.7000 124.900 0 19 1002 9 355

Digital Typhoon Data and Search

About IBTrACS Database

This database is a web-friendly format of International Best Track Archive for Climate Stewardship (IBTrACS), a global best track data archive curated by NOAA dating back to 1842.

Updated: 2021-12-08